Time;durP1;ratioP1;P1;durP2;ratioP2;P2;SDS_P1;SDS_P2;PMS_P1;PMS_P2;Temp;Humidity;BMP_temperature;BMP_pressure;BME280_temperature;BME280_humidity;BME280_pressure;Samples;Min_cycle;Max_cycle;Signal;HPM_P1;HPM_P2
2021/11/26 00:00:19;;;;;;;48.50;43.20;;;;;;;3.14;66.11;99443.13;108715;1277;22435;-74
2021/11/26 00:03:08;;;;;;;50.50;45.30;;;;;;;3.08;65.88;99447.64;108853;1278;23039;-77
2021/11/26 00:05:37;;;;;;;49.10;43.90;;;;;;;3.03;66.07;99443.66;108357;1283;22856;-73
2021/11/26 00:08:06;;;;;;;50.50;45.30;;;;;;;2.99;66.08;99448.45;108401;1283;24410;-73
2021/11/26 00:10:35;;;;;;;50.20;45.00;;;;;;;2.96;66.19;99450.16;108484;1282;21982;-73
2021/11/26 00:13:07;;;;;;;52.60;47.20;;;;;;;2.93;66.21;99450.60;108365;1283;23039;-76
2021/11/26 00:15:40;;;;;;;55.00;49.20;;;;;;;2.90;66.16;99447.45;108517;1282;23584;-74
2021/11/26 00:18:19;;;;;;;58.50;52.40;;;;;;;2.85;66.14;99445.10;108391;1283;21979;-73
2021/11/26 00:20:49;;;;;;;58.20;51.90;;;;;;;2.86;66.34;99443.29;108424;1283;22018;-73
2021/11/26 00:23:18;;;;;;;57.70;51.50;;;;;;;2.86;66.30;99439.95;108427;1277;22012;-73
2021/11/26 00:25:47;;;;;;;53.20;47.70;;;;;;;2.88;66.35;99439.24;108994;1276;23387;-75
2021/11/26 00:28:16;;;;;;;57.60;51.50;;;;;;;2.88;66.23;99439.98;108895;1277;22007;-73
2021/11/26 00:30:47;;;;;;;54.50;47.90;;;;;;;2.88;66.35;99438.06;108775;1277;21970;-73
2021/11/26 00:33:17;;;;;;;50.60;45.30;;;;;;;2.89;66.32;99436.36;108516;1282;23713;-73
2021/11/26 00:35:46;;;;;;;53.40;47.00;;;;;;;2.91;66.36;99435.86;108377;1280;22372;-73
2021/11/26 00:38:15;;;;;;;49.90;44.60;;;;;;;2.93;66.32;99439.16;108456;1282;22122;-73
2021/11/26 00:40:45;;;;;;;52.20;46.40;;;;;;;2.95;66.39;99441.36;108422;1282;22909;-73
2021/11/26 00:43:14;;;;;;;50.60;45.20;;;;;;;2.98;66.41;99438.86;108429;1282;21992;-72
2021/11/26 00:45:43;;;;;;;50.30;45.10;;;;;;;3.00;66.31;99438.18;108569;1282;22041;-74
2021/11/26 00:48:12;;;;;;;47.30;42.40;;;;;;;3.01;66.23;99432.52;108291;1285;21993;-72
2021/11/26 00:50:41;;;;;;;48.00;43.20;;;;;;;3.02;66.33;99430.96;108165;1282;23608;-72
2021/11/26 00:53:10;;;;;;;48.80;43.80;;;;;;;3.06;66.32;99430.30;108518;1282;22002;-74
2021/11/26 00:55:39;;;;;;;50.60;45.00;;;;;;;3.05;66.06;99426.15;108424;1282;21980;-74
2021/11/26 00:58:09;;;;;;;53.40;48.10;;;;;;;3.04;66.01;99425.89;108397;1282;23675;-73
2021/11/26 01:00:38;;;;;;;49.80;44.70;;;;;;;3.02;66.00;99421.30;108552;1282;21979;-73
2021/11/26 01:03:08;;;;;;;49.70;44.60;;;;;;;3.02;66.07;99417.45;108494;1282;22933;-73
2021/11/26 01:05:37;;;;;;;52.10;46.90;;;;;;;3.01;65.99;99415.92;108488;1281;22128;-73
2021/11/26 01:08:06;;;;;;;50.40;45.10;;;;;;;3.04;66.13;99416.36;108466;1278;22901;-73
2021/11/26 01:10:36;;;;;;;49.60;44.50;;;;;;;3.08;66.11;99415.31;108964;1276;21986;-73
2021/11/26 01:13:05;;;;;;;48.30;43.40;;;;;;;3.13;66.11;99415.55;108816;1277;23599;-73
2021/11/26 01:15:34;;;;;;;47.90;43.10;;;;;;;3.16;66.02;99421.50;108802;1277;21983;-72
2021/11/26 01:18:03;;;;;;;51.50;46.00;;;;;;;3.19;65.92;99414.45;108879;1276;23078;-72
2021/11/26 01:20:35;;;;;;;48.80;43.70;;;;;;;3.20;65.90;99407.04;108443;1283;22150;-73
2021/11/26 01:23:06;;;;;;;50.00;44.80;;;;;;;3.20;65.84;99403.02;108449;1280;22913;-73
2021/11/26 01:25:35;;;;;;;47.40;42.70;;;;;;;3.18;65.83;99399.90;108466;1282;23706;-73
2021/11/26 01:28:06;;;;;;;44.80;40.30;;;;;;;3.18;65.88;99395.44;108289;1285;22994;-73
2021/11/26 01:30:41;;;;;;;48.30;43.20;;;;;;;3.15;65.84;99392.26;108355;1283;23081;-73
2021/11/26 01:33:12;;;;;;;48.50;43.70;;;;;;;3.12;65.96;99384.81;108355;1283;21983;-73
2021/11/26 01:35:44;;;;;;;45.60;41.00;;;;;;;3.10;65.97;99389.23;108031;1289;23096;-73
2021/11/26 01:38:13;;;;;;;;;;;;;;;3.06;65.98;99386.92;108074;1285;23557;-73
2021/11/26 01:40:43;;;;;;;49.20;44.10;;;;;;;3.00;66.18;99384.17;108325;1284;21994;-73
2021/11/26 01:43:16;;;;;;;50.80;45.60;;;;;;;3.03;66.32;99388.84;108373;1284;21983;-73
2021/11/26 01:45:53;;;;;;;44.80;40.20;;;;;;;3.07;66.29;99392.46;108372;1285;24324;-73
2021/11/26 01:48:24;;;;;;;48.10;43.20;;;;;;;3.05;66.05;99382.30;108369;1284;23051;-73
2021/11/26 01:50:54;;;;;;;46.30;41.50;;;;;;;3.04;66.16;99384.71;108189;1288;23594;-73
2021/11/26 01:53:24;;;;;;;45.00;40.50;;;;;;;3.05;66.31;99379.73;108336;1281;22022;-73
2021/11/26 01:55:53;;;;;;;43.30;38.90;;;;;;;3.08;66.33;99373.24;108612;1280;23009;-73
2021/11/26 01:58:22;;;;;;;42.50;38.10;;;;;;;3.08;66.28;99370.05;108480;1281;22946;-73
2021/11/26 02:00:53;;;;;;;44.60;40.00;;;;;;;3.11;66.29;99361.45;108568;1281;23602;-73
2021/11/26 02:03:23;;;;;;;43.30;38.80;;;;;;;3.14;66.23;99357.38;108635;1280;22031;-73
2021/11/26 02:05:52;;;;;;;42.10;37.90;;;;;;;3.14;66.16;99347.13;108596;1281;21980;-73
2021/11/26 02:08:21;;;;;;;42.70;38.30;;;;;;;3.13;66.22;99341.66;108415;1277;23701;-73
2021/11/26 02:10:50;;;;;;;42.10;37.70;;;;;;;3.12;66.19;99342.20;108875;1276;22016;-73
2021/11/26 02:13:19;;;;;;;42.00;37.90;;;;;;;3.11;66.14;99345.30;108831;1276;21984;-73
2021/11/26 02:15:49;;;;;;;42.50;38.40;;;;;;;3.09;66.19;99337.34;108816;1277;21978;-73
2021/11/26 02:18:18;;;;;;;45.80;41.10;;;;;;;3.08;66.33;99333.18;108601;1278;21988;-73
2021/11/26 02:20:48;;;;;;;46.40;41.80;;;;;;;3.10;66.41;99325.17;108459;1276;21990;-73
2021/11/26 02:23:17;;;;;;;48.20;43.20;;;;;;;3.12;66.40;99321.75;108416;1282;22037;-73
2021/11/26 02:25:46;;;;;;;46.30;40.70;;;;;;;3.15;66.44;99321.40;108376;1282;22118;-73
2021/11/26 02:28:18;;;;;;;41.70;37.30;;;;;;;3.19;66.49;99322.81;108368;1282;23798;-73
2021/11/26 02:30:48;;;;;;;44.30;39.80;;;;;;;3.21;66.34;99316.51;108319;1283;22095;-73
2021/11/26 02:33:22;;;;;;;43.00;38.70;;;;;;;3.22;66.32;99315.66;108015;1288;22122;-73
2021/11/26 02:35:53;;;;;;;46.60;41.80;;;;;;;3.25;66.30;99318.55;108030;1286;22015;-73
2021/11/26 02:38:25;;;;;;;42.60;38.20;;;;;;;3.28;66.28;99314.44;107929;1286;22012;-73
2021/11/26 02:40:55;;;;;;;42.60;38.20;;;;;;;3.33;66.36;99314.87;108005;1283;22093;-73
2021/11/26 02:43:25;;;;;;;40.50;36.50;;;;;;;3.35;66.11;99311.89;108162;1286;22008;-73
2021/11/26 02:45:55;;;;;;;43.00;38.50;;;;;;;3.33;66.12;99309.41;108181;1286;23710;-73
2021/11/26 02:48:24;;;;;;;42.70;38.20;;;;;;;3.33;66.08;99300.36;108212;1286;23299;-73
2021/11/26 02:50:53;;;;;;;43.60;39.00;;;;;;;3.35;66.05;99293.63;107996;1283;22000;-73
2021/11/26 02:53:22;;;;;;;43.20;38.90;;;;;;;3.37;66.09;99299.30;108365;1283;22005;-73
2021/11/26 02:55:51;;;;;;;44.00;39.40;;;;;;;3.37;65.99;99301.59;108395;1282;23728;-73
2021/11/26 02:58:21;;;;;;;39.50;35.50;;;;;;;3.37;65.92;99303.96;108162;1287;22942;-73
2021/11/26 03:00:56;;;;;;;42.50;38.30;;;;;;;3.34;65.92;99306.34;107664;1289;21990;-73
2021/11/26 03:03:26;;;;;;;41.50;37.20;;;;;;;3.30;65.86;99311.33;108063;1288;22116;-73
2021/11/26 03:05:58;;;;;;;42.80;38.30;;;;;;;3.25;65.98;99306.02;107967;1289;23592;-73
2021/11/26 03:08:29;;;;;;;40.70;36.40;;;;;;;3.24;66.08;99302.10;108158;1288;23120;-74
2021/11/26 03:11:00;;;;;;;43.20;38.90;;;;;;;3.22;65.95;99297.80;107786;1292;22010;-74
2021/11/26 03:13:30;;;;;;;41.50;37.10;;;;;;;3.19;65.88;99298.71;107618;1292;23399;-74
2021/11/26 03:15:59;;;;;;;36.50;32.90;;;;;;;3.18;66.03;99299.89;107485;1297;23668;-74
2021/11/26 03:18:29;;;;;;;37.50;33.50;;;;;;;3.20;66.13;99297.64;107457;1291;22005;-74
2021/11/26 03:20:58;;;;;;;39.00;35.00;;;;;;;3.23;66.20;99290.73;107842;1291;22008;-74
2021/11/26 03:23:27;;;;;;;41.20;36.90;;;;;;;3.28;66.30;99287.39;107961;1286;23582;-74
2021/11/26 03:25:56;;;;;;;38.50;34.50;;;;;;;3.31;66.11;99289.28;108196;1286;22044;-74
2021/11/26 03:28:25;;;;;;;39.80;35.70;;;;;;;3.31;66.14;99289.11;108367;1281;23114;-73
2021/11/26 03:30:55;;;;;;;39.20;35.20;;;;;;;3.29;66.01;99293.05;108490;1281;21983;-73
2021/11/26 03:33:24;;;;;;;37.90;34.10;;;;;;;3.27;66.03;99293.78;108635;1278;23681;-73
2021/11/26 03:35:53;;;;;;;38.50;34.30;;;;;;;3.25;66.07;99298.82;108793;1277;23071;-73
2021/11/26 03:38:22;;;;;;;41.10;36.80;;;;;;;3.23;66.13;99304.82;108789;1278;22436;-74
2021/11/26 03:40:51;;;;;;;42.20;37.70;;;;;;;3.21;66.32;99303.05;108675;1276;21983;-73
2021/11/26 03:43:20;;;;;;;44.30;39.60;;;;;;;3.25;66.48;99301.30;108643;1277;22060;-74
2021/11/26 03:45:49;;;;;;;43.70;38.80;;;;;;;3.30;66.42;99293.20;109046;1276;22033;-74
2021/11/26 03:48:18;;;;;;;44.70;40.20;;;;;;;3.30;66.34;99291.80;108882;1276;21978;-74
2021/11/26 03:50:47;;;;;;;44.20;39.60;;;;;;;3.33;66.45;99291.32;108855;1277;23663;-73
2021/11/26 03:53:16;;;;;;;44.20;39.70;;;;;;;3.38;66.52;99281.88;108665;1278;21973;-74
2021/11/26 03:55:46;;;;;;;45.00;40.20;;;;;;;3.43;66.55;99281.51;108884;1277;21973;-74
2021/11/26 03:58:15;;;;;;;45.50;41.00;;;;;;;3.45;66.48;99275.75;108674;1278;23596;-73
2021/11/26 04:00:44;;;;;;;43.80;39.40;;;;;;;3.45;66.34;99271.19;108915;1275;22022;-73
2021/11/26 04:03:13;;;;;;;43.20;38.70;;;;;;;3.43;66.26;99264.30;108735;1276;22062;-73
2021/11/26 04:05:43;;;;;;;41.40;36.90;;;;;;;3.37;66.03;99263.27;108710;1278;23717;-74
2021/11/26 04:08:12;;;;;;;40.50;36.20;;;;;;;3.32;66.11;99259.05;108449;1283;22745;-73
2021/11/26 04:10:41;;;;;;;40.80;36.60;;;;;;;3.29;66.22;99258.09;108285;1285;23613;-73
2021/11/26 04:13:13;;;;;;;42.60;37.90;;;;;;;3.31;66.48;99258.61;108371;1283;22054;-73
2021/11/26 04:15:43;;;;;;;39.20;35.10;;;;;;;3.36;66.57;99254.30;108196;1286;21990;-73
2021/11/26 04:18:12;;;;;;;39.10;34.90;;;;;;;3.40;66.48;99256.39;108183;1286;23802;-73
2021/11/26 04:20:45;;;;;;;38.60;34.60;;;;;;;3.41;66.38;99256.10;108037;1286;22917;-72
2021/11/26 04:23:14;;;;;;;37.20;33.30;;;;;;;3.41;66.31;99251.95;108041;1286;22455;-73
2021/11/26 04:25:43;;;;;;;39.10;34.90;;;;;;;3.40;66.35;99248.02;108368;1284;22495;-72
2021/11/26 04:28:12;;;;;;;37.70;33.90;;;;;;;3.39;66.32;99249.20;108527;1281;23298;-74
2021/11/26 04:30:41;;;;;;;38.50;34.80;;;;;;;3.38;66.35;99252.96;108392;1282;21990;-73
2021/11/26 04:33:10;;;;;;;39.20;35.10;;;;;;;3.38;66.53;99249.09;108442;1278;22062;-72
2021/11/26 04:35:39;;;;;;;41.70;36.40;;;;;;;3.39;66.46;99246.36;108785;1277;21986;-73
2021/11/26 04:38:08;;;;;;;39.80;34.90;;;;;;;3.37;66.20;99243.30;108701;1277;22028;-73
2021/11/26 04:40:37;;;;;;;40.10;35.80;;;;;;;3.36;66.32;99249.27;108781;1277;21989;-73
2021/11/26 04:43:06;;;;;;;38.40;34.30;;;;;;;3.36;66.31;99244.83;108795;1278;22126;-73
2021/11/26 04:45:35;;;;;;;38.10;34.10;;;;;;;3.38;66.42;99246.64;108887;1277;21978;-73
2021/11/26 04:48:05;;;;;;;38.20;34.30;;;;;;;3.39;66.31;99244.49;108768;1278;23827;-74
2021/11/26 04:50:34;;;;;;;38.90;34.80;;;;;;;3.39;66.37;99242.90;108693;1278;22175;-74
2021/11/26 04:53:04;;;;;;;38.30;34.20;;;;;;;3.38;66.36;99239.63;108766;1278;21983;-74
2021/11/26 04:55:33;;;;;;;41.00;36.80;;;;;;;3.40;66.44;99240.73;108613;1278;23601;-73
2021/11/26 04:58:02;;;;;;;40.40;36.30;;;;;;;3.39;66.27;99241.55;108717;1278;23672;-74
2021/11/26 05:00:31;;;;;;;40.80;36.60;;;;;;;3.33;66.19;99244.16;108725;1277;22011;-73
2021/11/26 05:03:01;;;;;;;46.00;41.10;;;;;;;3.27;66.15;99241.22;108168;1286;22110;-73
2021/11/26 05:05:30;;;;;;;44.40;39.70;;;;;;;3.25;66.32;99242.34;107714;1291;22001;-74
2021/11/26 05:07:59;;;;;;;45.60;40.70;;;;;;;3.25;66.43;99241.75;107942;1289;22001;-74
2021/11/26 05:10:31;;;;;;;44.40;39.50;;;;;;;3.28;66.55;99242.37;107933;1289;22026;-74
2021/11/26 05:13:02;;;;;;;44.40;39.90;;;;;;;3.26;66.33;99241.49;107983;1291;22004;-74
2021/11/26 05:15:32;;;;;;;42.00;37.50;;;;;;;3.28;66.55;99240.48;107948;1291;23189;-73
2021/11/26 05:18:04;;;;;;;38.50;34.40;;;;;;;3.31;66.63;99244.68;107980;1291;22029;-74
2021/11/26 05:20:33;;;;;;;;;;;;;;;3.34;66.62;99247.02;107995;1285;23691;-73
2021/11/26 05:23:03;;;;;;;42.60;34.60;;;;;;;3.29;66.62;99246.84;108380;1277;23053;-73
2021/11/26 05:25:32;;;;;;;42.90;37.70;;;;;;;3.29;66.68;99249.04;108839;1276;23816;-73
2021/11/26 05:28:02;;;;;;;41.00;36.70;;;;;;;3.30;66.57;99242.02;108472;1277;22271;-73
2021/11/26 05:30:31;;;;;;;43.70;39.00;;;;;;;3.28;66.49;99240.13;108383;1282;22432;-73
2021/11/26 05:33:02;;;;;;;40.50;36.20;;;;;;;3.28;66.81;99238.48;108366;1283;22106;-73
2021/11/26 05:35:31;;;;;;;39.90;35.70;;;;;;;3.33;66.69;99233.63;108363;1283;23827;-74
2021/11/26 05:38:05;;;;;;;40.30;36.00;;;;;;;3.34;66.63;99228.45;108445;1279;21995;-73
2021/11/26 05:40:34;;;;;;;43.30;36.60;;;;;;;3.32;66.43;99228.25;107969;1288;23728;-74
2021/11/26 05:43:04;;;;;;;41.60;37.10;;;;;;;3.33;66.60;99223.51;108099;1288;23136;-73
2021/11/26 05:45:35;;;;;;;43.90;39.10;;;;;;;3.36;66.53;99222.15;107963;1288;22077;-73
2021/11/26 05:48:06;;;;;;;40.10;35.80;;;;;;;3.39;66.69;99223.21;108263;1282;22041;-73
2021/11/26 05:50:36;;;;;;;42.20;37.60;;;;;;;3.45;66.77;99218.11;108394;1283;23063;-73
2021/11/26 05:53:05;;;;;;;42.50;37.90;;;;;;;3.48;66.69;99211.68;108465;1282;23072;-73
2021/11/26 05:55:36;;;;;;;44.00;38.70;;;;;;;3.49;66.64;99210.74;108307;1285;23573;-73
2021/11/26 05:58:05;;;;;;;43.70;39.00;;;;;;;3.48;66.47;99206.86;108345;1277;21973;-75
2021/11/26 06:00:35;;;;;;;41.00;36.60;;;;;;;3.44;66.34;99198.78;109058;1275;23570;-73
2021/11/26 06:03:04;;;;;;;42.70;38.10;;;;;;;3.41;66.53;99196.77;108785;1278;21982;-73
2021/11/26 06:05:34;;;;;;;43.20;37.10;;;;;;;3.41;66.49;99194.48;108728;1278;22004;-73
2021/11/26 06:08:03;;;;;;;42.10;37.70;;;;;;;3.40;66.42;99193.06;108758;1278;21974;-73
2021/11/26 06:10:32;;;;;;;48.80;40.80;;;;;;;3.40;66.54;99198.45;108700;1278;22052;-73
2021/11/26 06:13:03;;;;;;;47.40;39.40;;;;;;;3.41;66.50;99193.11;108745;1278;23872;-73
2021/11/26 06:15:35;;;;;;;;;;;;;;;3.41;66.52;99188.90;108771;1278;21967;-73
2021/11/26 06:18:04;;;;;;;55.00;45.30;;;;;;;3.35;66.75;99188.33;108787;1278;22312;-73
2021/11/26 06:20:33;;;;;;;54.60;45.20;;;;;;;3.39;66.87;99187.72;108714;1278;22018;-73
2021/11/26 06:23:02;;;;;;;47.80;41.30;;;;;;;3.45;66.89;99184.15;108843;1278;22001;-73
2021/11/26 06:25:31;;;;;;;47.00;41.70;;;;;;;3.51;66.79;99183.58;108731;1275;21987;-74
2021/11/26 06:28:00;;;;;;;48.80;42.80;;;;;;;3.56;66.75;99181.90;108867;1275;23669;-74
2021/11/26 06:30:29;;;;;;;50.50;41.40;;;;;;;3.58;66.64;99182.06;108459;1280;23589;-73
2021/11/26 06:32:59;;;;;;;50.20;42.70;;;;;;;3.60;66.72;99182.67;108570;1280;23691;-74
2021/11/26 06:35:28;;;;;;;48.30;42.80;;;;;;;3.60;66.47;99185.53;108411;1280;24350;-74
2021/11/26 06:37:57;;;;;;;45.00;40.10;;;;;;;3.58;66.34;99191.23;107995;1286;22004;-74
2021/11/26 06:40:27;;;;;;;44.00;39.50;;;;;;;3.57;66.52;99196.03;108149;1286;21981;-74
2021/11/26 06:42:56;;;;;;;42.60;38.00;;;;;;;3.59;66.57;99201.63;108089;1286;147858;-74
2021/11/26 06:45:26;;;;;;;50.40;43.30;;;;;;;3.56;66.42;99199.99;108380;1286;23091;-75
2021/11/26 06:47:58;;;;;;;47.60;42.30;;;;;;;3.54;66.44;99201.57;108206;1282;23142;-74
2021/11/26 06:50:28;;;;;;;53.30;44.10;;;;;;;3.52;66.49;99193.90;108319;1282;22295;-73
2021/11/26 06:52:57;;;;;;;53.40;44.60;;;;;;;3.49;66.48;99196.87;108388;1282;22642;-78
2021/11/26 06:55:32;;;;;;;56.60;49.10;;;;;;;3.50;66.74;99191.00;108502;1278;22035;-78
2021/11/26 06:58:01;;;;;;;53.90;47.90;;;;;;;3.53;66.75;99186.48;108443;1282;22165;-78
2021/11/26 07:00:31;;;;;;;57.40;51.20;;;;;;;3.55;66.65;99185.95;108457;1282;22476;-78
2021/11/26 07:03:00;;;;;;;52.30;46.50;;;;;;;3.60;66.85;99185.09;108083;1286;22457;-74
2021/11/26 07:05:29;;;;;;;54.30;47.00;;;;;;;3.67;66.81;99187.59;108293;1286;21988;-74
2021/11/26 07:07:58;;;;;;;54.10;47.70;;;;;;;3.73;66.78;99190.79;108002;1286;21996;-74
2021/11/26 07:10:27;;;;;;;53.50;44.70;;;;;;;3.77;66.59;99184.85;108089;1286;23701;-75
2021/11/26 07:12:56;;;;;;;55.20;46.10;;;;;;;3.79;66.56;99177.31;108238;1286;21999;-74
2021/11/26 07:15:26;;;;;;;49.90;44.10;;;;;;;3.83;66.59;99173.61;108200;1280;23061;-74
2021/11/26 07:17:56;;;;;;;54.10;45.90;;;;;;;3.85;66.37;99175.07;107923;1290;23714;-74
2021/11/26 07:20:25;;;;;;;53.90;46.50;;;;;;;3.80;66.18;99174.09;107976;1286;23598;-74
2021/11/26 07:22:59;;;;;;;54.40;48.50;;;;;;;3.77;66.37;99173.30;108382;1283;22050;-75
2021/11/26 07:25:28;;;;;;;57.00;49.80;;;;;;;3.81;66.56;99165.48;107937;1289;23743;-76
2021/11/26 07:27:57;;;;;;;53.70;47.80;;;;;;;3.85;66.52;99163.35;107533;1295;22008;-74
2021/11/26 07:30:27;;;;;;;58.20;51.70;;;;;;;3.88;66.52;99168.98;107639;1292;23608;-75
2021/11/26 07:32:56;;;;;;;57.20;50.70;;;;;;;3.91;66.60;99165.11;107626;1295;23076;-76
2021/11/26 07:35:25;;;;;;;64.50;52.80;;;;;;;3.94;66.36;99159.48;107517;1292;23700;-75
2021/11/26 07:37:54;;;;;;;53.90;45.70;;;;;;;3.97;66.46;99159.66;107779;1292;23866;-75
2021/11/26 07:40:23;;;;;;;55.10;48.00;;;;;;;3.99;66.41;99162.39;107922;1292;23722;-75
2021/11/26 07:42:52;;;;;;;64.40;56.10;;;;;;;4.05;66.61;99164.34;107951;1286;22115;-74
2021/11/26 07:45:23;;;;;;;58.20;50.30;;;;;;;4.09;66.34;99172.27;108199;1281;22004;-74
2021/11/26 07:47:53;;;;;;;72.40;55.40;;;;;;;4.09;66.33;99172.08;108492;1282;24591;-74
2021/11/26 07:50:22;;;;;;;64.70;56.50;;;;;;;4.10;66.35;99176.08;107947;1286;23684;-75
2021/11/26 07:52:52;;;;;;;75.60;57.40;;;;;;;4.15;66.52;99172.14;107974;1289;22053;-75
2021/11/26 07:55:22;;;;;;;76.00;65.00;;;;;;;4.18;66.39;99169.35;108157;1288;22035;-75
2021/11/26 07:57:52;;;;;;;114.20;85.40;;;;;;;4.19;66.16;99174.73;107934;1289;22010;-74
2021/11/26 08:00:21;;;;;;;82.90;63.90;;;;;;;4.18;66.01;99171.63;108047;1289;23048;-75
2021/11/26 08:02:55;;;;;;;77.00;57.00;;;;;;;4.17;65.87;99169.02;107994;1289;24427;-76
2021/11/26 08:05:25;;;;;;;88.10;65.10;;;;;;;4.15;65.97;99171.45;107985;1287;21988;-75
2021/11/26 08:07:54;;;;;;;64.30;49.00;;;;;;;4.13;65.84;99173.90;108148;1289;23592;-75
2021/11/26 08:10:26;;;;;;;69.30;56.90;;;;;;;4.11;65.96;99176.72;108007;1286;22863;-77
2021/11/26 08:12:56;;;;;;;69.60;55.00;;;;;;;4.15;66.28;99172.86;108139;1284;22008;-74
2021/11/26 08:15:26;;;;;;;63.70;50.30;;;;;;;4.22;66.42;99171.73;108258;1283;22013;-75
2021/11/26 08:17:55;;;;;;;58.70;50.30;;;;;;;4.30;66.37;99174.52;108425;1281;23602;-74
2021/11/26 08:20:26;;;;;;;61.30;50.70;;;;;;;4.32;66.08;99172.82;108430;1280;22046;-74
2021/11/26 08:22:56;;;;;;;59.00;49.80;;;;;;;4.30;65.90;99173.42;108596;1281;22558;-75
2021/11/26 08:25:28;;;;;;;81.20;50.70;;;;;;;4.25;65.71;99172.23;108375;1282;21999;-79
2021/11/26 08:28:00;;;;;;;59.70;47.60;;;;;;;4.18;65.52;99170.65;108511;1278;22739;-76
2021/11/26 08:30:39;;;;;;;63.10;51.20;;;;;;;4.12;65.57;99167.91;108701;1278;23045;-75
2021/11/26 08:33:11;;;;;;;84.80;70.40;;;;;;;4.11;65.64;99163.27;108367;1284;22010;-74
2021/11/26 08:35:56;;;;;;;;;;;;;;;;;;;;;
2021/11/26 08:38:27;;;;;;;87.50;71.10;;;;;;;4.21;66.01;99161.63;108023;1286;23089;-76
2021/11/26 08:40:57;;;;;;;69.80;56.80;;;;;;;4.29;66.13;99160.44;107849;1291;22879;-75
2021/11/26 08:43:26;;;;;;;66.00;57.30;;;;;;;4.37;66.14;99160.36;107906;1291;22039;-75
2021/11/26 08:45:55;;;;;;;60.60;49.60;;;;;;;4.45;66.13;99165.39;107486;1298;23631;-75
2021/11/26 08:48:25;;;;;;;60.40;52.30;;;;;;;4.41;65.34;99158.15;107470;1298;21998;-75
2021/11/26 08:50:55;;;;;;;66.30;55.80;;;;;;;4.36;65.49;99152.58;107569;1292;22002;-76
2021/11/26 08:53:28;;;;;;;68.60;60.90;;;;;;;4.36;65.59;99151.23;107949;1292;22102;-74
2021/11/26 08:56:01;;;;;;;71.70;62.00;;;;;;;4.36;65.59;99156.29;107293;1299;24779;-75
2021/11/26 08:58:32;;;;;;;58.30;50.90;;;;;;;4.32;65.26;99158.56;107320;1298;22015;-75
2021/11/26 09:01:03;;;;;;;60.10;51.40;;;;;;;4.25;65.25;99157.84;107229;1299;22943;-75
2021/11/26 09:03:37;;;;;;;49.80;43.80;;;;;;;4.23;65.41;99149.02;107488;1289;22225;-76
2021/11/26 09:06:17;;;;;;;60.40;50.80;;;;;;;4.27;65.70;99146.07;108190;1283;23719;-75
2021/11/26 09:08:52;;;;;;;60.80;49.90;;;;;;;4.32;65.65;99143.56;108381;1283;23714;-76
2021/11/26 09:11:23;;;;;;;54.50;46.70;;;;;;;4.40;65.82;99139.61;108401;1284;24391;-76
2021/11/26 09:14:00;;;;;;;61.70;51.20;;;;;;;4.50;65.80;99133.66;108399;1284;22054;-76
2021/11/26 09:16:34;;;;;;;60.70;51.00;;;;;;;4.61;65.87;99131.52;108367;1283;22046;-75
2021/11/26 09:19:05;;;;;;;72.70;58.80;;;;;;;4.69;65.59;99124.75;108387;1284;23586;-76
2021/11/26 09:21:39;;;;;;;59.30;51.30;;;;;;;4.74;65.53;99116.93;108703;1278;23025;-76
2021/11/26 09:24:11;;;;;;;51.90;46.30;;;;;;;4.79;65.37;99117.75;108747;1278;23682;-76
2021/11/26 09:26:41;;;;;;;66.20;58.90;;;;;;;4.79;65.14;99109.05;108807;1276;23587;-75
2021/11/26 09:29:30;;;;;;;56.90;50.30;;;;;;;4.78;64.90;99102.67;108760;1277;22013;-76
2021/11/26 09:32:13;;;;;;;49.50;42.90;;;;;;;4.70;64.66;99102.53;108629;1278;23728;-76
2021/11/26 09:34:43;;;;;;;73.30;65.40;;;;;;;4.56;64.38;99095.27;108922;1277;21986;-75
2021/11/26 09:37:24;;;;;;;52.70;45.70;;;;;;;4.51;64.78;99092.45;108892;1277;22057;-75
2021/11/26 09:40:49;;;;;;;50.20;44.80;;;;;;;4.57;65.32;99082.62;108723;1277;23024;-76
2021/11/26 09:43:19;;;;;;;53.50;45.20;;;;;;;4.64;65.25;99079.98;108881;1277;23675;-75
2021/11/26 09:45:54;;;;;;;55.10;49.10;;;;;;;4.67;65.17;99081.89;108693;1278;22042;-76
2021/11/26 09:48:25;;;;;;;62.20;55.00;;;;;;;4.66;64.91;99074.66;108586;1277;23704;-75
2021/11/26 09:50:58;;;;;;;58.00;50.40;;;;;;;4.73;65.44;99065.38;108852;1277;22008;-76
2021/11/26 09:53:33;;;;;;;98.20;78.40;;;;;;;4.89;65.61;99061.73;108452;1281;22633;-75
2021/11/26 09:56:08;;;;;;;58.70;48.70;;;;;;;5.04;65.73;99047.05;108565;1282;22448;-77
2021/11/26 09:58:42;;;;;;;51.40;45.70;;;;;;;5.22;65.53;99044.86;108483;1281;23019;-76
2021/11/26 10:01:15;;;;;;;63.60;56.30;;;;;;;5.38;65.55;99037.83;108673;1281;23036;-75
2021/11/26 10:03:56;;;;;;;72.90;61.10;;;;;;;5.49;65.04;99039.73;108552;1280;22115;-76
2021/11/26 10:06:37;;;;;;;55.50;49.20;;;;;;;5.56;64.53;99037.77;108713;1281;23842;-75
2021/11/26 10:09:23;;;;;;;52.10;46.30;;;;;;;5.60;64.20;99032.08;108604;1281;22601;-75
2021/11/26 10:12:10;;;;;;;55.30;49.30;;;;;;;5.59;63.72;99030.70;108606;1275;23570;-77
2021/11/26 10:14:45;;;;;;;53.60;46.50;;;;;;;5.58;63.77;99025.82;108415;1282;21983;-77
2021/11/26 10:17:25;;;;;;;62.90;53.90;;;;;;;5.62;63.70;99023.13;108418;1282;24043;-75
2021/11/26 10:20:11;;;;;;;67.10;52.60;;;;;;;5.62;63.21;99021.27;108586;1281;22027;-75
2021/11/26 10:22:48;;;;;;;58.30;52.00;;;;;;;5.56;62.96;99019.93;108403;1282;22029;-77
2021/11/26 10:25:25;;;;;;;55.40;49.40;;;;;;;5.54;63.13;99023.02;108405;1282;22069;-75
2021/11/26 10:28:02;;;;;;;56.40;50.00;;;;;;;5.52;63.10;99014.09;108419;1282;23665;-75
2021/11/26 10:30:41;;;;;;;53.00;46.90;;;;;;;5.53;63.27;99007.54;107941;1289;22180;-75
2021/11/26 10:33:25;;;;;;;51.00;45.40;;;;;;;5.48;62.81;99006.08;108346;1282;23573;-75
2021/11/26 10:35:59;;;;;;;54.70;48.70;;;;;;;5.38;62.81;98998.89;108547;1282;21989;-76
2021/11/26 10:38:34;;;;;;;58.70;51.20;;;;;;;5.35;63.10;98998.35;108508;1282;22860;-76
2021/11/26 10:41:22;;;;;;;61.80;52.40;;;;;;;5.38;63.28;98993.89;108459;1282;22272;-75
2021/11/26 10:44:06;;;;;;;66.60;53.50;;;;;;;5.37;63.11;98983.48;108394;1284;23662;-76
2021/11/26 10:49:41;;;;;;;64.10;56.40;;;;;;;5.33;63.06;98975.94;108778;1275;21982;-76
2021/11/26 10:58:49;;;;;;;55.20;47.40;;;;;;;5.42;63.39;98960.06;108379;1283;23688;-76
2021/11/26 11:01:41;;;;;;;58.20;48.30;;;;;;;5.44;63.32;98959.30;108089;1288;22078;-76
2021/11/26 11:04:26;;;;;;;57.80;50.50;;;;;;;5.43;63.08;98956.09;107440;1295;22004;-76
2021/11/26 11:07:09;;;;;;;62.40;52.80;;;;;;;5.41;63.21;98948.80;107529;1294;21995;-76
2021/11/26 11:10:01;;;;;;;54.90;46.60;;;;;;;5.41;63.33;98943.39;107687;1294;22014;-76
2021/11/26 11:13:29;;;;;;;51.90;45.40;;;;;;;5.32;62.71;98938.81;107622;1291;23047;-75
2021/11/26 11:16:17;;;;;;;55.20;48.90;;;;;;;5.17;63.04;98921.39;107833;1287;22020;-75
2021/11/26 11:19:30;;;;;;;56.60;49.70;;;;;;;5.23;63.57;98919.08;107978;1283;22041;-76
2021/11/26 11:22:23;;;;;;;82.30;66.10;;;;;;;5.31;63.69;98917.31;108275;1281;22547;-76
2021/11/26 11:25:21;;;;;;;64.70;57.50;;;;;;;5.39;63.78;98917.73;108582;1281;21985;-75
2021/11/26 11:28:02;;;;;;;59.80;51.00;;;;;;;5.45;63.60;98915.20;108239;1287;22772;-75
2021/11/26 11:30:34;;;;;;;66.00;55.10;;;;;;;5.50;63.47;98910.10;108045;1287;23103;-75
2021/11/26 11:33:03;;;;;;;60.40;53.90;;;;;;;5.52;63.65;98904.13;107617;1291;21999;-75
2021/11/26 11:35:38;;;;;;;63.40;55.10;;;;;;;5.58;63.74;98899.81;107665;1291;22759;-75
2021/11/26 11:38:09;;;;;;;69.60;60.20;;;;;;;5.56;63.11;98892.90;107585;1292;23802;-76
2021/11/26 11:40:43;;;;;;;62.90;53.90;;;;;;;5.50;62.98;98890.03;107626;1291;23696;-76
2021/11/26 11:43:20;;;;;;;61.90;52.80;;;;;;;5.47;63.06;98887.89;107642;1291;22015;-75
2021/11/26 11:46:03;;;;;;;71.20;60.70;;;;;;;5.47;63.16;98883.08;107932;1286;22058;-75
2021/11/26 11:48:55;;;;;;;58.10;49.90;;;;;;;5.38;62.56;98884.59;108313;1282;21986;-74
2021/11/26 11:51:31;;;;;;;58.20;49.10;;;;;;;5.20;62.54;98877.42;108681;1278;23675;-75